Orbital elements of FENGYUN 1C DEB
| Launched | 9 May 1999 |
| Flight ended | – |
| Launch site | Taiyuan Space Center, PRC |
| Owner | People's Republic of China |
| NORAD ID | 30379 |
| Date fetched |
Epoch osculation |
Inc. [°] |
Ecc. | RA asc node [hr] |
Arg Peri. [°] |
Mean anom [°] |
Mean motion [rev/day] |
Abs. mag |
| Date fetched |
Epoch osculation |
Inc. [°] |
Ecc. | RA asc node [hr] |
Arg Peri. [°] |
Mean anom [°] |
Mean motion [rev/day] |
Abs. mag |
| 2026 May 08 17:57 | 2026 May 04 23:32:55 | 98.7504 | 0.00353 | 9.3637 | 233.5041 | 156.1958 | 14.08189 | – |
| 2026 May 07 17:58 | 2026 May 04 23:32:55 | 98.7504 | 0.00353 | 9.3637 | 233.5041 | 156.1958 | 14.08189 | – |
| 2026 May 06 17:57 | 2026 May 04 23:32:55 | 98.7504 | 0.00353 | 9.3637 | 233.5041 | 156.1958 | 14.08189 | – |
| 2026 May 05 17:57 | 2026 May 04 23:32:55 | 98.7504 | 0.00353 | 9.3637 | 233.5041 | 156.1958 | 14.08189 | – |
| 2026 May 04 17:57 | 2026 Apr 30 12:42:26 | 98.7508 | 0.00352 | 9.0759 | 246.4843 | 156.1958 | 14.08189 | – |
| 2026 May 03 17:57 | 2026 Apr 30 12:42:26 | 98.7508 | 0.00352 | 9.0759 | 246.4843 | 156.1958 | 14.08189 | – |
| 2026 May 02 17:57 | 2026 Apr 30 12:42:26 | 98.7508 | 0.00352 | 9.0759 | 246.4843 | 156.1958 | 14.08189 | – |
| 2026 May 01 17:56 | 2026 Apr 30 12:42:26 | 98.7508 | 0.00352 | 9.0759 | 246.4843 | 156.1958 | 14.08189 | – |
| 2026 Apr 30 17:56 | 2026 Apr 30 12:42:26 | 98.7508 | 0.00352 | 9.0759 | 246.4843 | 156.1958 | 14.08189 | – |
| 2026 Apr 29 17:57 | 2026 Apr 24 13:29:12 | 98.7515 | 0.00351 | 8.6899 | 263.8814 | 156.1958 | 14.08189 | – |
| 2026 Apr 28 17:56 | 2026 Apr 24 13:29:12 | 98.7515 | 0.00351 | 8.6899 | 263.8814 | 156.1958 | 14.08189 | – |
| 2026 Apr 27 17:58 | 2026 Apr 24 13:29:12 | 98.7515 | 0.00351 | 8.6899 | 263.8814 | 156.1958 | 14.08189 | – |
| 2026 Apr 26 17:58 | 2026 Apr 24 13:29:12 | 98.7515 | 0.00351 | 8.6899 | 263.8814 | 156.1958 | 14.08189 | – |
| 2026 Apr 25 17:58 | 2026 Apr 24 13:29:12 | 98.7515 | 0.00351 | 8.6899 | 263.8814 | 156.1958 | 14.08189 | – |
| 2026 Apr 24 17:59 | 2026 Apr 24 13:29:12 | 98.7515 | 0.00351 | 8.6899 | 263.8814 | 156.1958 | 14.08189 | – |
| 2026 Apr 23 17:57 | 2026 Apr 19 12:23:13 | 98.7521 | 0.00351 | 8.3636 | 278.6616 | 156.1958 | 14.08189 | – |
| 2026 Apr 22 17:57 | 2026 Apr 19 12:23:13 | 98.7521 | 0.00351 | 8.3636 | 278.6616 | 156.1958 | 14.08189 | – |
| 2026 Apr 21 17:57 | 2026 Apr 19 12:23:13 | 98.7521 | 0.00351 | 8.3636 | 278.6616 | 156.1958 | 14.08189 | – |
| 2026 Apr 20 17:57 | 2026 Apr 19 12:23:13 | 98.7521 | 0.00351 | 8.3636 | 278.6616 | 156.1958 | 14.08189 | – |
| 2026 Apr 19 17:58 | 2026 Apr 19 12:23:13 | 98.7521 | 0.00351 | 8.3636 | 278.6616 | 156.1958 | 14.08189 | – |
| 2026 Apr 18 17:56 | 2026 Apr 13 00:36:00 | 98.7525 | 0.00351 | 7.9438 | 297.6545 | 156.1958 | 14.08189 | – |
| 2026 Apr 16 17:57 | 2026 Apr 13 00:36:00 | 98.7525 | 0.00351 | 7.9438 | 297.6545 | 156.1958 | 14.08189 | – |
| 2026 Apr 14 17:57 | 2026 Apr 13 00:36:00 | 98.7525 | 0.00351 | 7.9438 | 297.6545 | 156.1958 | 14.08189 | – |
| 2026 Apr 13 17:57 | 2026 Apr 13 00:36:00 | 98.7525 | 0.00351 | 7.9438 | 297.6545 | 156.1958 | 14.08189 | – |
| 2026 Apr 12 17:57 | 2026 Apr 08 12:04:23 | 98.7531 | 0.00353 | 7.6513 | 310.8364 | 156.1958 | 14.08189 | – |
| 2026 Apr 11 17:57 | 2026 Apr 08 12:04:23 | 98.7531 | 0.00353 | 7.6513 | 310.8364 | 156.1958 | 14.08189 | – |